createdAt,value
2017-12-21T00:02:10.863Z,2.10
2017-12-21T00:04:37.298Z,2.13
2017-12-21T00:07:03.732Z,2.12
2017-12-21T00:09:30.167Z,2.10
2017-12-21T00:11:56.532Z,1.98
2017-12-21T00:14:22.933Z,1.95
2017-12-21T00:16:50.188Z,1.95
2017-12-21T00:19:16.620Z,1.88
2017-12-21T00:21:43.055Z,1.85
2017-12-21T00:24:09.491Z,1.82
2017-12-21T00:26:35.925Z,1.72
2017-12-21T00:29:02.361Z,1.87
2017-12-21T00:31:28.797Z,1.88
2017-12-21T00:33:55.844Z,1.89
2017-12-21T00:36:22.298Z,1.94
2017-12-21T00:38:48.712Z,1.96
2017-12-21T00:41:15.076Z,1.96
2017-12-21T00:43:41.564Z,2.00
2017-12-21T00:46:08.016Z,1.97
2017-12-21T00:48:34.455Z,1.92
2017-12-21T00:51:01.588Z,1.92
2017-12-21T00:53:28.037Z,1.93
2017-12-21T00:55:54.370Z,1.91
2017-12-21T00:58:20.803Z,1.77
2017-12-21T01:00:47.253Z,1.78
2017-12-21T01:03:13.708Z,1.70
2017-12-21T01:05:40.189Z,1.72
2017-12-21T01:08:07.357Z,1.82
2017-12-21T01:10:33.729Z,1.86
2017-12-21T01:13:00.128Z,1.84
2017-12-21T01:15:26.561Z,1.85
2017-12-21T01:17:53.098Z,1.86
2017-12-21T01:20:19.533Z,1.90
2017-12-21T01:22:45.896Z,1.84
2017-12-21T01:25:13.323Z,1.82
2017-12-21T01:27:39.687Z,1.81
2017-12-21T01:30:06.090Z,1.81
2017-12-21T01:32:32.524Z,1.81
2017-12-21T01:34:58.959Z,1.81
2017-12-21T01:37:25.393Z,1.80
2017-12-21T01:39:51.828Z,1.76
2017-12-21T01:42:18.979Z,1.73
2017-12-21T01:44:45.414Z,1.75
2017-12-21T01:47:11.971Z,1.75
2017-12-21T01:49:38.386Z,1.76
2017-12-21T01:52:04.922Z,1.77
2017-12-21T01:54:31.358Z,1.74
2017-12-21T01:56:57.684Z,1.67
2017-12-21T01:59:24.840Z,1.57
2017-12-21T02:01:51.282Z,1.55
2017-12-21T02:04:17.710Z,1.65
2017-12-21T02:06:44.162Z,1.58
2017-12-21T02:09:10.580Z,1.64
2017-12-21T02:11:37.013Z,1.70
2017-12-21T02:14:03.448Z,1.71
2017-12-21T02:16:30.603Z,1.72
2017-12-21T02:18:57.037Z,1.67
2017-12-21T02:21:23.407Z,1.67
2017-12-21T02:23:49.801Z,1.71
2017-12-21T02:26:16.164Z,1.67
2017-12-21T02:28:42.623Z,1.69
2017-12-21T02:31:08.937Z,1.59
2017-12-21T02:33:36.263Z,1.62
2017-12-21T02:36:02.692Z,1.56
2017-12-21T02:38:29.124Z,1.58
2017-12-21T02:40:55.551Z,1.70
2017-12-21T02:43:21.992Z,1.68
2017-12-21T02:45:48.428Z,1.62
2017-12-21T02:48:14.862Z,1.57
2017-12-21T02:50:42.014Z,1.68
2017-12-21T02:53:08.346Z,1.61
2017-12-21T02:55:34.780Z,1.70
2017-12-21T02:58:01.216Z,1.68
2017-12-21T03:00:27.652Z,1.72
2017-12-21T03:02:54.102Z,1.66
2017-12-21T03:05:20.519Z,1.60
2017-12-21T03:07:47.664Z,1.65
2017-12-21T03:10:14.210Z,1.67
2017-12-21T03:12:40.571Z,1.73
2017-12-21T03:15:06.938Z,1.71
2017-12-21T03:17:33.408Z,1.71
2017-12-21T03:19:59.843Z,1.70
2017-12-21T03:22:26.295Z,1.73
2017-12-21T03:24:53.404Z,1.74
2017-12-21T03:27:19.863Z,1.76
2017-12-21T03:29:46.297Z,1.75
2017-12-21T03:32:12.732Z,1.74
2017-12-21T03:34:39.166Z,1.72
2017-12-21T03:37:05.601Z,1.71
2017-12-21T03:39:32.035Z,1.71
2017-12-21T03:41:59.116Z,1.69
2017-12-21T03:44:25.519Z,1.71
2017-12-21T03:46:51.885Z,1.71
2017-12-21T03:49:18.375Z,1.71
2017-12-21T03:51:44.818Z,1.70
2017-12-21T03:54:11.259Z,1.71
2017-12-21T03:56:37.620Z,1.70
2017-12-21T03:59:04.945Z,1.69
2017-12-21T04:01:31.379Z,1.66
2017-12-21T04:03:57.862Z,1.66
2017-12-21T04:06:24.219Z,1.68
2017-12-21T04:08:50.660Z,1.63
2017-12-21T04:11:17.118Z,1.60
2017-12-21T04:13:43.552Z,1.59
2017-12-21T04:16:10.704Z,1.53
2017-12-21T04:18:37.131Z,1.54
2017-12-21T04:21:03.504Z,1.58
2017-12-21T04:23:29.906Z,1.61
2017-12-21T04:25:56.339Z,1.65
2017-12-21T04:28:22.704Z,1.71
2017-12-21T04:30:49.036Z,1.71
2017-12-21T04:33:16.380Z,1.72
2017-12-21T04:35:42.692Z,1.70
2017-12-21T04:38:09.089Z,1.67
2017-12-21T04:40:35.531Z,1.62
2017-12-21T04:43:01.973Z,1.54
2017-12-21T04:45:28.415Z,1.48
2017-12-21T04:47:54.864Z,1.54
2017-12-21T04:50:22.105Z,1.51
2017-12-21T04:52:48.515Z,1.50
2017-12-21T04:55:14.987Z,1.54
2017-12-21T04:57:41.441Z,1.58
2017-12-21T05:00:07.858Z,1.58
2017-12-21T05:02:34.291Z,1.59
2017-12-21T05:05:00.623Z,1.60
2017-12-21T05:07:27.876Z,1.62
2017-12-21T05:09:54.248Z,1.62
2017-12-21T05:12:20.643Z,1.64
2017-12-21T05:14:47.078Z,1.65
2017-12-21T05:17:13.550Z,1.57
2017-12-21T05:19:39.948Z,1.59
2017-12-21T05:22:06.382Z,1.54
2017-12-21T05:24:33.533Z,1.52
2017-12-21T05:26:59.864Z,1.50
2017-12-21T05:29:26.198Z,1.54
2017-12-21T05:31:52.631Z,1.54
2017-12-21T05:34:19.054Z,1.50
2017-12-21T05:36:45.398Z,1.49
2017-12-21T05:39:11.836Z,1.50
2017-12-21T05:41:38.884Z,1.48
2017-12-21T05:44:05.318Z,1.47
2017-12-21T05:46:31.679Z,1.48
2017-12-21T05:48:58.056Z,1.46
2017-12-21T05:51:24.450Z,1.49
2017-12-21T05:53:50.850Z,1.59
2017-12-21T05:56:17.223Z,1.58
2017-12-21T05:58:44.437Z,1.46
2017-12-21T06:01:10.839Z,1.22
2017-12-21T06:03:37.283Z,1.57
2017-12-21T06:06:03.673Z,1.59
2017-12-21T06:08:30.090Z,1.60
2017-12-21T06:10:56.482Z,1.60
2017-12-21T06:13:22.924Z,1.51
2017-12-21T06:15:50.091Z,1.54
2017-12-21T06:18:16.423Z,1.55
2017-12-21T06:20:42.857Z,1.54
2017-12-21T06:23:09.293Z,1.52
2017-12-21T06:25:35.611Z,1.65
2017-12-21T06:28:02.059Z,1.70
2017-12-21T06:30:28.394Z,1.76
2017-12-21T06:32:55.644Z,1.82
2017-12-21T06:35:22.079Z,1.83
2017-12-21T06:37:48.514Z,1.87
2017-12-21T06:40:14.968Z,1.79
2017-12-21T06:42:41.313Z,1.75
2017-12-21T06:45:07.715Z,1.81
2017-12-21T06:47:34.149Z,1.75
2017-12-21T06:50:01.199Z,1.85
2017-12-21T06:52:27.594Z,1.95
2017-12-21T06:54:54.067Z,1.97
2017-12-21T06:57:20.400Z,1.98
2017-12-21T06:59:46.838Z,1.96
2017-12-21T07:02:13.268Z,2.04
2017-12-21T07:04:39.737Z,2.02
2017-12-21T07:07:06.138Z,2.07
2017-12-21T07:09:32.469Z,2.07
2017-12-21T07:11:58.856Z,2.07
2017-12-21T07:14:25.324Z,2.04
2017-12-21T07:16:51.725Z,2.03
2017-12-21T07:19:18.059Z,1.97
2017-12-21T07:21:44.356Z,2.07
2017-12-21T07:24:10.804Z,2.12
2017-12-21T07:26:37.205Z,2.19
2017-12-21T07:29:03.640Z,2.28
2017-12-21T07:31:30.073Z,2.33
2017-12-21T07:33:56.611Z,2.27
2017-12-21T07:36:25.699Z,2.28
2017-12-21T07:38:52.859Z,2.31
2017-12-21T07:41:21.768Z,2.34
2017-12-21T07:43:48.277Z,2.30
2017-12-21T07:46:14.619Z,2.32
2017-12-21T07:48:41.060Z,2.31
2017-12-21T07:51:07.453Z,2.37
2017-12-21T07:53:33.894Z,2.38
2017-12-21T07:56:00.358Z,2.38
2017-12-21T07:58:26.818Z,2.44
2017-12-21T08:00:53.226Z,2.46
2017-12-21T08:03:19.661Z,2.46
2017-12-21T08:05:46.102Z,2.49
2017-12-21T08:08:12.427Z,2.50
2017-12-21T08:10:38.862Z,2.35
2017-12-21T08:13:05.269Z,2.46
2017-12-21T08:15:31.834Z,2.47
2017-12-21T08:17:58.202Z,2.51
2017-12-21T08:20:24.532Z,2.63
2017-12-21T08:22:50.896Z,2.71
2017-12-21T08:25:17.264Z,2.77
2017-12-21T08:27:43.642Z,2.86
2017-12-21T08:30:10.133Z,2.98
2017-12-21T08:32:36.569Z,3.14
2017-12-21T08:35:03.002Z,3.14
2017-12-21T08:37:29.439Z,3.29
2017-12-21T08:39:55.871Z,3.36
2017-12-21T08:42:22.306Z,3.30
2017-12-21T08:44:48.842Z,3.11
2017-12-21T08:47:15.280Z,3.28
2017-12-21T08:49:41.713Z,3.26
2017-12-21T08:52:08.225Z,3.37
2017-12-21T08:54:34.786Z,3.40
2017-12-21T08:57:01.220Z,3.37
2017-12-21T08:59:27.588Z,3.28
2017-12-21T09:01:53.987Z,3.29
2017-12-21T09:04:20.627Z,3.35
2017-12-21T09:06:46.996Z,3.21
2017-12-21T09:09:13.369Z,2.94
2017-12-21T09:11:39.765Z,3.12
2017-12-21T09:14:06.253Z,3.17
2017-12-21T09:16:32.699Z,3.26
2017-12-21T09:18:59.061Z,3.27
2017-12-21T09:21:25.463Z,3.25
2017-12-21T09:23:52.000Z,3.19
2017-12-21T09:26:18.434Z,3.10
2017-12-21T09:28:44.869Z,3.00
2017-12-21T09:31:11.303Z,2.89
2017-12-21T09:33:37.777Z,2.86
2017-12-21T09:36:04.201Z,2.85
2017-12-21T09:38:30.612Z,2.98
2017-12-21T09:40:57.041Z,3.13
2017-12-21T09:43:23.414Z,3.18
2017-12-21T09:45:49.910Z,3.24
2017-12-21T09:48:16.345Z,3.28
2017-12-21T09:50:42.881Z,3.23
2017-12-21T09:53:09.357Z,3.21
2017-12-21T09:55:35.787Z,3.19
2017-12-21T09:58:02.185Z,3.23
2017-12-21T10:00:28.619Z,3.32
2017-12-21T10:02:55.054Z,3.38
2017-12-21T10:05:21.591Z,3.42
2017-12-21T10:07:48.027Z,3.39
2017-12-21T10:10:14.461Z,3.29
2017-12-21T10:12:40.895Z,3.30
2017-12-21T10:15:07.363Z,3.41
2017-12-21T10:17:33.696Z,3.43
2017-12-21T10:20:00.403Z,3.45
2017-12-21T10:22:26.776Z,3.39
2017-12-21T10:24:53.288Z,3.45
2017-12-21T10:27:19.711Z,3.50
2017-12-21T10:29:46.092Z,3.61
2017-12-21T10:32:12.474Z,3.63
2017-12-21T10:34:39.011Z,3.78
2017-12-21T10:37:05.445Z,3.86
2017-12-21T10:39:32.294Z,3.67
2017-12-21T10:41:58.727Z,3.53
2017-12-21T10:44:25.104Z,3.51
2017-12-21T10:46:51.446Z,3.47
2017-12-21T10:49:17.825Z,3.65
2017-12-21T10:51:44.260Z,3.67
2017-12-21T10:54:11.307Z,3.65
2017-12-21T10:56:37.673Z,3.51
2017-12-21T10:59:04.073Z,3.42
2017-12-21T11:01:30.374Z,3.47
2017-12-21T11:03:56.815Z,3.55
2017-12-21T11:06:23.274Z,3.88
2017-12-21T11:08:49.710Z,4.06
2017-12-21T11:11:16.144Z,4.21
2017-12-21T11:13:42.680Z,4.16
2017-12-21T11:16:09.115Z,4.07
2017-12-21T11:18:35.549Z,3.94
2017-12-21T11:21:02.324Z,3.76
2017-12-21T11:23:28.725Z,3.63
2017-12-21T11:25:55.060Z,3.51
2017-12-21T11:28:21.492Z,3.41
2017-12-21T11:30:47.926Z,3.33
2017-12-21T11:33:14.363Z,3.21
2017-12-21T11:35:40.818Z,3.20
2017-12-21T11:38:07.235Z,3.25
2017-12-21T11:40:34.621Z,3.25
2017-12-21T11:43:01.020Z,3.26
2017-12-21T11:45:27.558Z,3.24
2017-12-21T11:47:53.992Z,3.25
2017-12-21T11:50:20.427Z,3.25
2017-12-21T11:52:46.792Z,3.08
2017-12-21T11:55:13.315Z,3.16
2017-12-21T11:57:39.731Z,3.11
2017-12-21T12:00:06.107Z,3.03
2017-12-21T12:02:32.906Z,3.06
2017-12-21T12:04:59.443Z,2.99
2017-12-21T12:07:25.939Z,2.97
2017-12-21T12:09:52.272Z,2.99
2017-12-21T12:12:18.645Z,3.01
2017-12-21T12:14:45.200Z,2.99
2017-12-21T12:17:11.573Z,2.99
2017-12-21T12:19:38.050Z,2.86
2017-12-21T12:22:04.383Z,2.69
2017-12-21T12:24:30.919Z,2.67
2017-12-21T12:26:57.284Z,2.68
2017-12-21T12:29:23.616Z,2.67
2017-12-21T12:31:49.977Z,2.65
2017-12-21T12:34:16.349Z,2.68
2017-12-21T12:36:42.684Z,2.74
2017-12-21T12:39:09.116Z,2.81
2017-12-21T12:41:35.426Z,2.82
2017-12-21T12:44:01.812Z,2.83
2017-12-21T12:46:28.216Z,2.88
2017-12-21T12:48:54.650Z,2.88
2017-12-21T12:51:21.007Z,2.86
2017-12-21T12:53:47.417Z,2.87
2017-12-21T12:56:13.853Z,2.97
2017-12-21T12:58:40.286Z,2.93
2017-12-21T13:01:06.720Z,2.89
2017-12-21T13:03:33.088Z,2.89
2017-12-21T13:05:59.462Z,2.78
2017-12-21T13:08:25.912Z,2.66
2017-12-21T13:10:52.358Z,2.70
2017-12-21T13:13:18.763Z,2.56
2017-12-21T13:15:45.123Z,2.55
2017-12-21T13:18:11.557Z,2.44
2017-12-21T13:20:37.991Z,2.43
2017-12-21T13:23:04.391Z,2.45
2017-12-21T13:25:30.847Z,2.42
2017-12-21T13:27:57.295Z,2.41
2017-12-21T13:30:24.384Z,2.47
2017-12-21T13:32:50.799Z,2.46
2017-12-21T13:35:17.267Z,2.40
2017-12-21T13:37:43.669Z,2.43
2017-12-21T13:40:10.082Z,2.43
2017-12-21T13:42:36.415Z,2.38
2017-12-21T13:45:02.932Z,2.36
2017-12-21T13:47:29.385Z,2.34
2017-12-21T13:49:55.754Z,2.33
2017-12-21T13:52:22.112Z,2.25
2017-12-21T13:54:48.587Z,2.23
2017-12-21T13:57:16.680Z,2.14
2017-12-21T13:59:43.095Z,2.11
2017-12-21T14:02:09.463Z,2.10
2017-12-21T14:04:35.965Z,2.05
2017-12-21T14:07:02.397Z,2.01
2017-12-21T14:09:30.773Z,1.95
2017-12-21T14:11:57.519Z,1.91
2017-12-21T14:14:24.056Z,1.92
2017-12-21T14:16:50.490Z,1.90
2017-12-21T14:19:17.419Z,1.87
2017-12-21T14:21:43.871Z,1.80
2017-12-21T14:24:10.348Z,1.83
2017-12-21T14:26:36.743Z,1.77
2017-12-21T14:29:03.195Z,1.76
2017-12-21T14:31:29.611Z,1.63
2017-12-21T14:33:56.147Z,1.57
2017-12-21T14:36:22.582Z,1.51
2017-12-21T14:38:49.015Z,1.53
2017-12-21T14:41:15.453Z,1.54
2017-12-21T14:43:41.988Z,1.27
2017-12-21T14:46:08.380Z,1.34
2017-12-21T14:48:34.754Z,1.37
2017-12-21T14:51:01.188Z,1.26
2017-12-21T14:53:27.522Z,1.16
2017-12-21T14:55:54.058Z,1.05
2017-12-21T14:58:20.360Z,1.05
2017-12-21T15:00:46.824Z,1.01
2017-12-21T15:03:13.260Z,0.95
2017-12-21T15:05:39.636Z,0.93
2017-12-21T15:08:05.982Z,0.89
2017-12-21T15:10:32.360Z,0.84
2017-12-21T15:12:58.793Z,0.58
2017-12-21T15:15:25.227Z,0.79
2017-12-21T15:17:51.662Z,0.74
2017-12-21T15:20:18.094Z,0.75
2017-12-21T15:22:44.432Z,0.66
2017-12-21T15:25:10.968Z,0.72
2017-12-21T15:27:37.401Z,0.74
2017-12-21T15:30:03.835Z,0.70
2017-12-21T15:32:30.276Z,0.62
2017-12-21T15:34:56.702Z,0.69
2017-12-21T15:37:23.163Z,0.68
2017-12-21T15:39:49.576Z,0.72
2017-12-21T15:42:16.212Z,0.73
2017-12-21T15:44:42.645Z,0.75
2017-12-21T15:47:09.008Z,0.79
2017-12-21T15:49:35.412Z,0.84
2017-12-21T15:52:01.850Z,0.92
2017-12-21T15:54:28.383Z,0.96
2017-12-21T15:56:54.820Z,0.95
2017-12-21T15:59:21.254Z,0.96
2017-12-21T16:01:47.687Z,0.97
2017-12-21T16:04:14.019Z,1.01
2017-12-21T16:06:40.351Z,1.05
2017-12-21T16:09:06.786Z,1.16
2017-12-21T16:11:33.221Z,1.18
2017-12-21T16:14:00.362Z,1.13
2017-12-21T16:16:26.806Z,0.99
2017-12-21T16:18:53.342Z,1.23
2017-12-21T16:21:19.716Z,1.29
2017-12-21T16:23:46.110Z,1.32
2017-12-21T16:26:12.749Z,1.39
2017-12-21T16:28:39.202Z,1.38
2017-12-21T16:31:06.343Z,1.36
2017-12-21T16:33:32.871Z,1.33
2017-12-21T16:35:59.316Z,1.34
2017-12-21T16:38:25.672Z,1.39
2017-12-21T16:40:52.055Z,1.41
2017-12-21T16:43:18.489Z,1.40
2017-12-21T16:45:44.882Z,1.45
2017-12-21T16:48:12.216Z,1.41
2017-12-21T16:50:38.630Z,1.46
2017-12-21T16:53:05.168Z,1.54
2017-12-21T16:55:31.602Z,1.56
2017-12-21T16:57:58.036Z,1.55
2017-12-21T17:00:24.368Z,1.56
2017-12-21T17:02:50.803Z,1.57
2017-12-21T17:05:17.942Z,1.53
2017-12-21T17:07:44.399Z,1.56
2017-12-21T17:10:10.822Z,1.54
2017-12-21T17:12:37.259Z,1.53
2017-12-21T17:15:03.610Z,1.48
2017-12-21T17:17:30.002Z,1.55
2017-12-21T17:19:56.356Z,1.58
2017-12-21T17:22:23.713Z,1.65
2017-12-21T17:24:50.146Z,1.64
2017-12-21T17:27:16.580Z,1.61
2017-12-21T17:29:43.014Z,1.53
2017-12-21T17:32:09.450Z,1.50
2017-12-21T17:34:35.885Z,1.55
2017-12-21T17:37:02.319Z,1.54
2017-12-21T17:39:29.573Z,1.54
2017-12-21T17:41:56.007Z,1.61
2017-12-21T17:44:22.340Z,1.59
2017-12-21T17:46:48.774Z,1.60
2017-12-21T17:49:15.208Z,1.60
2017-12-21T17:51:41.644Z,1.59
2017-12-21T17:54:08.082Z,1.57
2017-12-21T17:56:35.331Z,1.62
2017-12-21T17:59:01.701Z,1.67
2017-12-21T18:01:28.030Z,1.67
2017-12-21T18:03:54.431Z,1.66
2017-12-21T18:06:20.865Z,1.60
2017-12-21T18:08:47.299Z,1.35
2017-12-21T18:11:13.696Z,1.49
2017-12-21T18:13:40.782Z,1.45
2017-12-21T18:16:07.218Z,1.45
2017-12-21T18:18:33.549Z,1.44
2017-12-21T18:21:00.087Z,1.45
2017-12-21T18:23:26.508Z,1.47
2017-12-21T18:25:52.955Z,1.51
2017-12-21T18:28:19.389Z,1.49
2017-12-21T18:30:46.478Z,1.48
2017-12-21T18:33:12.849Z,1.52
2017-12-21T18:35:39.244Z,1.48
2017-12-21T18:38:05.580Z,1.52
2017-12-21T18:40:32.074Z,1.55
2017-12-21T18:42:58.510Z,1.57
2017-12-21T18:45:24.943Z,1.65
2017-12-21T18:47:52.201Z,1.59
2017-12-21T18:50:18.528Z,1.54
2017-12-21T18:52:45.067Z,1.58
2017-12-21T18:55:11.501Z,1.61
2017-12-21T18:57:37.935Z,1.63
2017-12-21T19:00:04.369Z,1.68
2017-12-21T19:02:30.842Z,1.64
2017-12-21T19:04:58.058Z,1.65
2017-12-21T19:07:24.492Z,1.66
2017-12-21T19:09:50.926Z,1.56
2017-12-21T19:12:17.363Z,1.54
2017-12-21T19:14:43.797Z,1.54
2017-12-21T19:17:10.230Z,1.53
2017-12-21T19:19:36.664Z,1.48
2017-12-21T19:22:03.818Z,1.47
2017-12-21T19:24:30.251Z,1.46
2017-12-21T19:26:56.686Z,1.39
2017-12-21T19:29:23.120Z,1.30
2017-12-21T19:31:49.554Z,1.36
2017-12-21T19:34:15.988Z,1.39
2017-12-21T19:36:42.293Z,1.38
2017-12-21T19:39:09.472Z,1.38
2017-12-21T19:41:35.922Z,1.41
2017-12-21T19:44:02.341Z,1.43
2017-12-21T19:46:28.776Z,1.42
2017-12-21T19:48:55.210Z,1.38
2017-12-21T19:51:21.645Z,1.39
2017-12-21T19:53:48.080Z,1.33
2017-12-21T19:56:15.332Z,1.29
2017-12-21T19:58:41.767Z,1.14
2017-12-21T20:01:08.099Z,1.06
2017-12-21T20:03:34.536Z,1.04
2017-12-21T20:06:00.973Z,1.03
2017-12-21T20:08:27.430Z,0.95
2017-12-21T20:10:53.840Z,1.10
2017-12-21T20:13:21.091Z,1.00
2017-12-21T20:15:47.529Z,1.02
2017-12-21T20:18:14.079Z,0.89
2017-12-21T20:20:40.434Z,1.05
2017-12-21T20:23:06.813Z,1.04
2017-12-21T20:25:33.254Z,1.06
2017-12-21T20:27:59.597Z,1.09
2017-12-21T20:30:26.936Z,0.97
2017-12-21T20:32:53.387Z,1.20
2017-12-21T20:35:19.839Z,1.20
2017-12-21T20:37:46.236Z,1.22
2017-12-21T20:40:12.680Z,1.11
2017-12-21T20:42:39.124Z,1.11
2017-12-21T20:45:05.492Z,1.26
2017-12-21T20:47:32.815Z,1.24
2017-12-21T20:49:59.246Z,1.29
2017-12-21T20:52:25.587Z,1.27
2017-12-21T20:54:52.014Z,1.27
2017-12-21T20:57:18.346Z,1.25
2017-12-21T20:59:44.712Z,1.22
2017-12-21T21:02:11.113Z,1.19
2017-12-21T21:04:38.369Z,1.09
2017-12-21T21:07:04.799Z,1.05
2017-12-21T21:09:31.235Z,1.05
2017-12-21T21:11:57.707Z,0.99
2017-12-21T21:14:24.104Z,0.90
2017-12-21T21:16:50.539Z,0.88
2017-12-21T21:19:16.871Z,0.82
2017-12-21T21:21:44.228Z,0.71
2017-12-21T21:24:10.560Z,0.66
2017-12-21T21:26:37.096Z,0.51
2017-12-21T21:29:03.531Z,0.47
2017-12-21T21:31:29.968Z,0.38
2017-12-21T21:33:56.297Z,0.28
2017-12-21T21:36:22.834Z,0.19
2017-12-21T21:38:49.959Z,0.17
2017-12-21T21:41:16.325Z,0.20
2017-12-21T21:43:42.751Z,0.14
2017-12-21T21:46:09.186Z,0.05
2017-12-21T21:48:35.653Z,0.04
2017-12-21T21:51:02.019Z,0.05
2017-12-21T21:53:28.333Z,0.00
2017-12-21T21:55:55.642Z,-0.22
2017-12-21T21:58:22.076Z,-0.07
2017-12-21T22:00:48.511Z,-0.17
2017-12-21T22:03:14.842Z,-0.17
2017-12-21T22:05:41.280Z,-0.18
2017-12-21T22:08:07.649Z,-0.28
2017-12-21T22:10:33.984Z,-0.32
2017-12-21T22:13:01.196Z,-0.36
2017-12-21T22:15:27.630Z,-0.37
2017-12-21T22:17:54.059Z,-0.44
2017-12-21T22:20:20.499Z,-0.50
2017-12-21T22:22:46.956Z,-0.50
2017-12-21T22:25:13.368Z,-0.53
2017-12-21T22:27:39.803Z,-0.55
2017-12-21T22:30:07.056Z,-0.60
2017-12-21T22:32:33.592Z,-0.61
2017-12-21T22:35:00.027Z,-0.65
2017-12-21T22:37:26.462Z,-0.64
2017-12-21T22:39:52.915Z,-0.65
2017-12-21T22:42:19.326Z,-0.75
2017-12-21T22:44:45.703Z,-0.75
2017-12-21T22:47:13.019Z,-0.80
2017-12-21T22:49:39.452Z,-0.82
2017-12-21T22:52:05.888Z,-0.87
2017-12-21T22:54:32.322Z,-0.86
2017-12-21T22:56:58.693Z,-0.86
2017-12-21T22:59:25.192Z,-0.92
2017-12-21T23:01:51.626Z,-0.95
2017-12-21T23:04:18.778Z,-1.01
2017-12-21T23:06:45.214Z,-1.07
2017-12-21T23:09:11.647Z,-1.11
2017-12-21T23:11:38.082Z,-1.16
2017-12-21T23:14:04.452Z,-1.18
2017-12-21T23:16:30.831Z,-1.13
2017-12-21T23:18:57.249Z,-1.11
2017-12-21T23:21:24.442Z,-1.19
2017-12-21T23:23:50.877Z,-1.13
2017-12-21T23:26:17.314Z,-1.10
2017-12-21T23:28:43.746Z,-1.37
2017-12-21T23:31:10.171Z,-1.14
2017-12-21T23:33:36.602Z,-1.15
2017-12-21T23:36:03.049Z,-1.25
2017-12-21T23:38:30.304Z,-1.15
2017-12-21T23:40:56.802Z,-1.23
2017-12-21T23:43:23.274Z,-1.25
2017-12-21T23:45:49.684Z,-1.28
2017-12-21T23:48:16.137Z,-1.31
2017-12-21T23:50:42.580Z,-1.31
2017-12-21T23:53:09.116Z,-1.35
2017-12-21T23:55:36.266Z,-1.49
2017-12-21T23:58:02.780Z,-1.61
